sensor_id;sensor_type;location;lat;lon;timestamp;pressure;altitude;pressure_sealevel;temperature;humidity
25232;BME280;13176;51.140;6.290;2022-10-04T00:00:38;101644.38;;;15.70;70.78
25232;BME280;13176;51.140;6.290;2022-10-04T00:03:27;101674.00;;;15.79;70.96
25232;BME280;13176;51.140;6.290;2022-10-04T00:05:57;101668.06;;;15.68;71.45
25232;BME280;13176;51.140;6.290;2022-10-04T00:08:34;101657.75;;;15.59;72.23
25232;BME280;13176;51.140;6.290;2022-10-04T00:11:11;101663.69;;;15.67;72.33
25232;BME280;13176;51.140;6.290;2022-10-04T00:13:40;101666.16;;;15.76;71.24
25232;BME280;13176;51.140;6.290;2022-10-04T00:16:19;101669.63;;;15.78;71.07
25232;BME280;13176;51.140;6.290;2022-10-04T00:18:47;101650.84;;;15.52;71.57
25232;BME280;13176;51.140;6.290;2022-10-04T00:21:13;101640.47;;;15.45;71.60
25232;BME280;13176;51.140;6.290;2022-10-04T00:23:42;101602.22;;;15.27;71.44
25232;BME280;13176;51.140;6.290;2022-10-04T00:28:48;101649.69;;;15.67;71.16
25232;BME280;13176;51.140;6.290;2022-10-04T00:44:04;101590.38;;;15.02;72.74
25232;BME280;13176;51.140;6.290;2022-10-04T00:46:34;101650.97;;;15.46;72.39
25232;BME280;13176;51.140;6.290;2022-10-04T00:49:06;101666.56;;;15.55;72.10
25232;BME280;13176;51.140;6.290;2022-10-04T00:51:48;101643.97;;;15.45;71.92
25232;BME280;13176;51.140;6.290;2022-10-04T00:54:39;101639.59;;;15.46;71.39
25232;BME280;13176;51.140;6.290;2022-10-04T00:57:15;101642.16;;;15.47;71.41
25232;BME280;13176;51.140;6.290;2022-10-04T00:59:45;101663.84;;;15.61;71.84
25232;BME280;13176;51.140;6.290;2022-10-04T01:02:30;101661.06;;;15.67;71.29
25232;BME280;13176;51.140;6.290;2022-10-04T01:05:08;101659.34;;;15.66;71.27
25232;BME280;13176;51.140;6.290;2022-10-04T01:07:48;101524.06;;;14.88;71.01
25232;BME280;13176;51.140;6.290;2022-10-04T01:10:40;101598.72;;;15.27;71.00
25232;BME280;13176;51.140;6.290;2022-10-04T01:15:52;101638.75;;;15.42;71.76
25232;BME280;13176;51.140;6.290;2022-10-04T01:20:52;101656.09;;;15.52;72.12
25232;BME280;13176;51.140;6.290;2022-10-04T01:23:39;101660.63;;;15.46;72.13
25232;BME280;13176;51.140;6.290;2022-10-04T01:28:52;101641.22;;;15.51;72.49
25232;BME280;13176;51.140;6.290;2022-10-04T01:31:19;101603.97;;;15.28;72.67
25232;BME280;13176;51.140;6.290;2022-10-04T01:33:46;101649.09;;;15.51;72.18
25232;BME280;13176;51.140;6.290;2022-10-04T01:36:14;101642.13;;;15.50;72.16
25232;BME280;13176;51.140;6.290;2022-10-04T01:38:40;101621.47;;;15.29;72.08
25232;BME280;13176;51.140;6.290;2022-10-04T01:41:07;101631.75;;;15.41;72.23
25232;BME280;13176;51.140;6.290;2022-10-04T01:43:37;101602.25;;;15.24;71.68
25232;BME280;13176;51.140;6.290;2022-10-04T01:46:19;101467.00;;;14.47;71.12
25232;BME280;13176;51.140;6.290;2022-10-04T01:48:47;101505.03;;;14.75;71.22
25232;BME280;13176;51.140;6.290;2022-10-04T01:51:17;101487.63;;;14.69;71.27
25232;BME280;13176;51.140;6.290;2022-10-04T01:53:50;101621.34;;;15.35;71.16
25232;BME280;13176;51.140;6.290;2022-10-04T01:56:23;101610.41;;;15.09;71.93
25232;BME280;13176;51.140;6.290;2022-10-04T01:59:04;101626.13;;;15.12;72.19
25232;BME280;13176;51.140;6.290;2022-10-04T02:04:29;101618.03;;;15.24;72.29
25232;BME280;13176;51.140;6.290;2022-10-04T02:06:58;101581.59;;;15.03;71.63
25232;BME280;13176;51.140;6.290;2022-10-04T02:09:29;101598.88;;;15.16;71.75
25232;BME280;13176;51.140;6.290;2022-10-04T02:11:57;101592.78;;;15.14;71.37
25232;BME280;13176;51.140;6.290;2022-10-04T02:14:28;101503.53;;;14.59;71.57
25232;BME280;13176;51.140;6.290;2022-10-04T02:16:59;101501.75;;;14.61;72.25
25232;BME280;13176;51.140;6.290;2022-10-04T02:19:33;101605.81;;;15.20;71.68
25232;BME280;13176;51.140;6.290;2022-10-04T02:22:04;101591.94;;;15.12;71.79
25232;BME280;13176;51.140;6.290;2022-10-04T02:24:34;101553.44;;;15.08;71.65
25232;BME280;13176;51.140;6.290;2022-10-04T02:27:02;101502.31;;;14.79;71.52
25232;BME280;13176;51.140;6.290;2022-10-04T02:29:28;101553.72;;;14.93;72.00
25232;BME280;13176;51.140;6.290;2022-10-04T02:31:55;101495.88;;;14.47;72.58
25232;BME280;13176;51.140;6.290;2022-10-04T02:34:40;101566.91;;;14.92;72.69
25232;BME280;13176;51.140;6.290;2022-10-04T02:37:07;101527.88;;;14.70;72.81
25232;BME280;13176;51.140;6.290;2022-10-04T02:39:37;101574.69;;;14.96;73.44
25232;BME280;13176;51.140;6.290;2022-10-04T02:42:16;101557.38;;;14.86;73.21
25232;BME280;13176;51.140;6.290;2022-10-04T02:44:52;101511.50;;;14.54;73.57
25232;BME280;13176;51.140;6.290;2022-10-04T02:47:24;101574.88;;;14.87;74.05
25232;BME280;13176;51.140;6.290;2022-10-04T02:49:59;101441.97;;;14.25;73.49
25232;BME280;13176;51.140;6.290;2022-10-04T02:52:44;101564.13;;;15.01;72.90
25232;BME280;13176;51.140;6.290;2022-10-04T02:57:41;101525.09;;;14.79;73.25
25232;BME280;13176;51.140;6.290;2022-10-04T03:00:17;101522.28;;;14.89;72.74
25232;BME280;13176;51.140;6.290;2022-10-04T03:03:21;101551.78;;;15.04;73.16
25232;BME280;13176;51.140;6.290;2022-10-04T03:06:03;101485.78;;;14.73;73.15
25232;BME280;13176;51.140;6.290;2022-10-04T03:08:35;101503.06;;;14.85;72.91
25232;BME280;13176;51.140;6.290;2022-10-04T03:11:10;101456.19;;;14.62;72.62
25232;BME280;13176;51.140;6.290;2022-10-04T03:13:40;101492.88;;;14.68;73.31
25232;BME280;13176;51.140;6.290;2022-10-04T03:16:10;101546.84;;;14.86;73.93
25232;BME280;13176;51.140;6.290;2022-10-04T03:18:36;101515.72;;;14.63;74.27
25232;BME280;13176;51.140;6.290;2022-10-04T03:21:09;101536.28;;;14.89;73.68
25232;BME280;13176;51.140;6.290;2022-10-04T03:23:37;101522.47;;;14.79;73.67
25232;BME280;13176;51.140;6.290;2022-10-04T03:28:44;101504.28;;;14.68;73.26
25232;BME280;13176;51.140;6.290;2022-10-04T03:31:12;101512.06;;;14.73;73.11
25232;BME280;13176;51.140;6.290;2022-10-04T03:33:40;101495.50;;;14.69;72.54
25232;BME280;13176;51.140;6.290;2022-10-04T03:36:12;101499.81;;;14.72;72.90
25232;BME280;13176;51.140;6.290;2022-10-04T03:38:40;101368.09;;;13.96;72.95
25232;BME280;13176;51.140;6.290;2022-10-04T03:41:09;101414.84;;;14.26;72.98
25232;BME280;13176;51.140;6.290;2022-10-04T03:43:41;101492.66;;;14.80;73.26
25232;BME280;13176;51.140;6.290;2022-10-04T03:46:10;101460.56;;;14.63;72.82
25232;BME280;13176;51.140;6.290;2022-10-04T03:48:49;101494.31;;;14.86;73.29
25232;BME280;13176;51.140;6.290;2022-10-04T03:51:19;101454.53;;;14.58;72.99
25232;BME280;13176;51.140;6.290;2022-10-04T03:53:50;101454.53;;;14.58;73.25
25232;BME280;13176;51.140;6.290;2022-10-04T03:56:32;101476.91;;;14.80;73.00
25232;BME280;13176;51.140;6.290;2022-10-04T03:59:04;101502.09;;;14.91;72.35
25232;BME280;13176;51.140;6.290;2022-10-04T04:01:39;101486.59;;;14.76;72.95
25232;BME280;13176;51.140;6.290;2022-10-04T04:04:16;101504.81;;;14.86;73.40
25232;BME280;13176;51.140;6.290;2022-10-04T04:06:51;101496.25;;;14.76;72.85
25232;BME280;13176;51.140;6.290;2022-10-04T04:09:30;101484.03;;;14.73;72.99
25232;BME280;13176;51.140;6.290;2022-10-04T04:12:01;101400.03;;;14.22;73.00
25232;BME280;13176;51.140;6.290;2022-10-04T04:14:31;101459.81;;;14.56;73.04
25232;BME280;13176;51.140;6.290;2022-10-04T04:19:52;101504.22;;;14.70;73.34
25232;BME280;13176;51.140;6.290;2022-10-04T04:22:20;101440.84;;;14.39;72.98
25232;BME280;13176;51.140;6.290;2022-10-04T04:24:47;101498.09;;;14.71;73.01
25232;BME280;13176;51.140;6.290;2022-10-04T04:27:16;101498.97;;;14.70;73.30
25232;BME280;13176;51.140;6.290;2022-10-04T04:29:47;101491.94;;;14.72;73.35
25232;BME280;13176;51.140;6.290;2022-10-04T04:32:32;101445.09;;;14.46;73.20
25232;BME280;13176;51.140;6.290;2022-10-04T04:35:01;101495.38;;;14.75;73.37
25232;BME280;13176;51.140;6.290;2022-10-04T04:37:36;101498.81;;;14.79;73.74
25232;BME280;13176;51.140;6.290;2022-10-04T04:40:21;101477.91;;;14.74;73.74
25232;BME280;13176;51.140;6.290;2022-10-04T04:42:48;101485.47;;;14.90;72.62
25232;BME280;13176;51.140;6.290;2022-10-04T04:45:18;101444.69;;;14.70;72.22
25232;BME280;13176;51.140;6.290;2022-10-04T04:47:52;101358.81;;;14.27;71.87
25232;BME280;13176;51.140;6.290;2022-10-04T04:50:22;101459.28;;;14.84;71.47
25232;BME280;13176;51.140;6.290;2022-10-04T04:52:52;101405.66;;;14.51;71.12
25232;BME280;13176;51.140;6.290;2022-10-04T04:55:23;101460.97;;;14.88;70.21
25232;BME280;13176;51.140;6.290;2022-10-04T04:57:54;101422.84;;;14.67;70.45
25232;BME280;13176;51.140;6.290;2022-10-04T05:00:26;101469.69;;;14.90;70.33
25232;BME280;13176;51.140;6.290;2022-10-04T05:02:56;101475.81;;;14.91;70.52
25232;BME280;13176;51.140;6.290;2022-10-04T05:05:32;101438.28;;;14.84;70.14
25232;BME280;13176;51.140;6.290;2022-10-04T05:08:25;101469.69;;;14.90;70.24
25232;BME280;13176;51.140;6.290;2022-10-04T05:13:43;101438.66;;;14.64;69.71
25232;BME280;13176;51.140;6.290;2022-10-04T05:16:17;101456.34;;;14.56;70.93
25232;BME280;13176;51.140;6.290;2022-10-04T05:18:45;101465.13;;;14.55;70.95
25232;BME280;13176;51.140;6.290;2022-10-04T05:21:27;101454.97;;;14.35;72.26
25232;BME280;13176;51.140;6.290;2022-10-04T05:23:56;101474.94;;;14.44;72.85
25232;BME280;13176;51.140;6.290;2022-10-04T05:26:26;101465.94;;;14.57;72.59
25232;BME280;13176;51.140;6.290;2022-10-04T05:28:55;101376.56;;;14.13;71.75
25232;BME280;13176;51.140;6.290;2022-10-04T05:31:29;101463.19;;;14.63;71.63
25232;BME280;13176;51.140;6.290;2022-10-04T05:33:58;101455.38;;;14.60;71.34
25232;BME280;13176;51.140;6.290;2022-10-04T05:36:48;101435.69;;;14.35;71.59
25232;BME280;13176;51.140;6.290;2022-10-04T05:42:04;101454.97;;;14.34;72.44
25232;BME280;13176;51.140;6.290;2022-10-04T05:44:36;101460.22;;;14.34;72.48
25232;BME280;13176;51.140;6.290;2022-10-04T05:47:11;101457.72;;;14.25;73.01
25232;BME280;13176;51.140;6.290;2022-10-04T05:49:42;101358.13;;;13.65;72.76
25232;BME280;13176;51.140;6.290;2022-10-04T05:52:36;101444.78;;;14.13;73.06
25232;BME280;13176;51.140;6.290;2022-10-04T05:55:21;101329.56;;;13.47;73.69
25232;BME280;13176;51.140;6.290;2022-10-04T06:03:42;101433.06;;;14.36;72.48
25232;BME280;13176;51.140;6.290;2022-10-04T06:09:05;101458.78;;;14.66;71.53
25232;BME280;13176;51.140;6.290;2022-10-04T06:15:12;101451.84;;;14.61;70.29
25232;BME280;13176;51.140;6.290;2022-10-04T06:23:05;101442.53;;;14.45;70.85
25232;BME280;13176;51.140;6.290;2022-10-04T06:25:43;101405.41;;;14.14;70.75
25232;BME280;13176;51.140;6.290;2022-10-04T06:28:21;101469.72;;;14.41;71.14
25232;BME280;13176;51.140;6.290;2022-10-04T06:31:13;101464.47;;;14.41;70.96
25232;BME280;13176;51.140;6.290;2022-10-04T06:36:48;101457.25;;;14.55;70.23
25232;BME280;13176;51.140;6.290;2022-10-04T06:42:15;101466.00;;;14.54;70.38
25232;BME280;13176;51.140;6.290;2022-10-04T06:53:34;101461.50;;;14.59;70.91
25232;BME280;13176;51.140;6.290;2022-10-04T07:01:49;101459.63;;;14.67;70.64
25232;BME280;13176;51.140;6.290;2022-10-04T07:10:24;101477.81;;;14.77;70.91
25232;BME280;13176;51.140;6.290;2022-10-04T07:15:46;101477.00;;;14.74;70.99
25232;BME280;13176;51.140;6.290;2022-10-04T07:18:24;101462.19;;;14.70;70.99
25232;BME280;13176;51.140;6.290;2022-10-04T07:21:13;101346.84;;;14.11;69.95
25232;BME280;13176;51.140;6.290;2022-10-04T07:23:49;101455.16;;;14.72;70.93
25232;BME280;13176;51.140;6.290;2022-10-04T07:26:49;101414.41;;;14.50;70.62
25232;BME280;13176;51.140;6.290;2022-10-04T07:29:27;101465.47;;;14.82;70.78
25232;BME280;13176;51.140;6.290;2022-10-04T07:32:19;101463.91;;;14.72;70.67
25232;BME280;13176;51.140;6.290;2022-10-04T07:35:00;101482.06;;;14.85;70.47
25232;BME280;13176;51.140;6.290;2022-10-04T07:37:32;101440.34;;;14.68;69.94
25232;BME280;13176;51.140;6.290;2022-10-04T07:40:24;101488.84;;;14.95;70.08
25232;BME280;13176;51.140;6.290;2022-10-04T07:43:01;101469.56;;;14.96;70.71
25232;BME280;13176;51.140;6.290;2022-10-04T07:45:38;101443.47;;;14.87;70.25
25232;BME280;13176;51.140;6.290;2022-10-04T07:48:14;101486.53;;;15.24;69.80
25232;BME280;13176;51.140;6.290;2022-10-04T07:56:06;101459.41;;;15.22;69.02
25232;BME280;13176;51.140;6.290;2022-10-04T07:58:39;101480.13;;;15.39;68.97
25232;BME280;13176;51.140;6.290;2022-10-04T08:01:20;101477.44;;;15.42;68.61
25232;BME280;13176;51.140;6.290;2022-10-04T08:04:05;101392.50;;;14.94;68.68
25232;BME280;13176;51.140;6.290;2022-10-04T08:06:57;101458.50;;;15.26;69.43
25232;BME280;13176;51.140;6.290;2022-10-04T08:09:44;101467.31;;;15.22;70.28
25232;BME280;13176;51.140;6.290;2022-10-04T08:17:34;101448.69;;;15.33;69.77
25232;BME280;13176;51.140;6.290;2022-10-04T08:20:46;101466.63;;;15.55;70.04
25232;BME280;13176;51.140;6.290;2022-10-04T08:23:23;101461.31;;;15.58;70.49
25232;BME280;13176;51.140;6.290;2022-10-04T08:31:51;101444.88;;;15.85;70.74
25232;BME280;13176;51.140;6.290;2022-10-04T08:37:06;101470.25;;;16.24;70.72
25232;BME280;13176;51.140;6.290;2022-10-04T08:42:37;101447.47;;;16.23;69.36
25232;BME280;13176;51.140;6.290;2022-10-04T08:51:48;101455.38;;;16.58;68.93
25232;BME280;13176;51.140;6.290;2022-10-04T08:54:23;101460.34;;;16.70;69.00
25232;BME280;13176;51.140;6.290;2022-10-04T09:05:54;101373.44;;;16.67;70.02
25232;BME280;13176;51.140;6.290;2022-10-04T09:11:44;101429.66;;;17.28;69.38
25232;BME280;13176;51.140;6.290;2022-10-04T09:17:20;101458.94;;;17.78;68.55
25232;BME280;13176;51.140;6.290;2022-10-04T09:19:55;101449.78;;;17.88;68.23
25232;BME280;13176;51.140;6.290;2022-10-04T09:36:14;101441.16;;;18.62;65.17
25232;BME280;13176;51.140;6.290;2022-10-04T09:42:19;101434.16;;;18.86;64.14
25232;BME280;13176;51.140;6.290;2022-10-04T10:05:21;101422.59;;;19.58;58.90
25232;BME280;13176;51.140;6.290;2022-10-04T10:10:55;101408.31;;;19.62;58.31
25232;BME280;13176;51.140;6.290;2022-10-04T10:13:55;101428.16;;;19.95;59.46
25232;BME280;13176;51.140;6.290;2022-10-04T10:28:38;101408.16;;;25.01;44.08
25232;BME280;13176;51.140;6.290;2022-10-04T10:51:12;101391.25;;;23.36;47.27
25232;BME280;13176;51.140;6.290;2022-10-04T10:56:46;101366.13;;;22.60;48.24
25232;BME280;13176;51.140;6.290;2022-10-04T11:00:12;101398.69;;;22.65;47.99
25232;BME280;13176;51.140;6.290;2022-10-04T11:05:28;101377.31;;;23.16;48.66
25232;BME280;13176;51.140;6.290;2022-10-04T11:13:45;101371.84;;;23.81;47.87
25232;BME280;13176;51.140;6.290;2022-10-04T11:28:11;101372.25;;;22.95;47.50
25232;BME280;13176;51.140;6.290;2022-10-04T11:43:14;101363.00;;;23.02;47.69
25232;BME280;13176;51.140;6.290;2022-10-04T11:46:10;101369.31;;;22.99;47.99
25232;BME280;13176;51.140;6.290;2022-10-04T11:48:54;101349.19;;;22.78;48.62
25232;BME280;13176;51.140;6.290;2022-10-04T11:51:41;101363.56;;;22.91;47.62
25232;BME280;13176;51.140;6.290;2022-10-04T11:57:07;101365.56;;;23.51;46.56
25232;BME280;13176;51.140;6.290;2022-10-04T11:59:48;101338.66;;;23.40;46.46
25232;BME280;13176;51.140;6.290;2022-10-04T12:02:34;101360.84;;;23.56;45.97
25232;BME280;13176;51.140;6.290;2022-10-04T12:08:31;101356.78;;;23.01;42.91
25232;BME280;13176;51.140;6.290;2022-10-04T12:19:15;101334.97;;;23.27;40.92
25232;BME280;13176;51.140;6.290;2022-10-04T12:22:08;101332.28;;;23.12;41.73
25232;BME280;13176;51.140;6.290;2022-10-04T12:25:30;101217.44;;;22.54;43.41
25232;BME280;13176;51.140;6.290;2022-10-04T12:28:19;101314.00;;;23.04;42.59
25232;BME280;13176;51.140;6.290;2022-10-04T12:33:46;101306.81;;;23.06;40.66
25232;BME280;13176;51.140;6.290;2022-10-04T12:39:15;101307.53;;;23.56;44.49
25232;BME280;13176;51.140;6.290;2022-10-04T12:44:51;101296.44;;;24.08;41.92
25232;BME280;13176;51.140;6.290;2022-10-04T12:47:31;101306.63;;;24.02;39.68
25232;BME280;13176;51.140;6.290;2022-10-04T12:50:30;101311.97;;;23.55;40.09
25232;BME280;13176;51.140;6.290;2022-10-04T12:56:11;101308.41;;;24.44;40.82
25232;BME280;13176;51.140;6.290;2022-10-04T12:59:09;101301.19;;;25.16;40.00
25232;BME280;13176;51.140;6.290;2022-10-04T13:02:20;101294.53;;;25.76;39.61
25232;BME280;13176;51.140;6.290;2022-10-04T13:04:54;101296.50;;;25.60;38.66
25232;BME280;13176;51.140;6.290;2022-10-04T13:10:32;101286.63;;;24.52;40.20
25232;BME280;13176;51.140;6.290;2022-10-04T13:13:10;101288.72;;;24.61;41.28
25232;BME280;13176;51.140;6.290;2022-10-04T13:15:51;101256.75;;;24.31;42.15
25232;BME280;13176;51.140;6.290;2022-10-04T13:24:09;101258.78;;;24.84;41.69
25232;BME280;13176;51.140;6.290;2022-10-04T13:26:58;101270.69;;;24.64;40.34
25232;BME280;13176;51.140;6.290;2022-10-04T13:32:25;101245.44;;;24.13;40.58
25232;BME280;13176;51.140;6.290;2022-10-04T13:35:05;101200.28;;;24.10;39.35
25232;BME280;13176;51.140;6.290;2022-10-04T13:38:06;101223.00;;;23.87;40.25
25232;BME280;13176;51.140;6.290;2022-10-04T13:40:59;101234.25;;;23.78;39.31
25232;BME280;13176;51.140;6.290;2022-10-04T13:44:12;101205.53;;;23.52;41.54
25232;BME280;13176;51.140;6.290;2022-10-04T13:47:05;101237.22;;;23.88;40.88
25232;BME280;13176;51.140;6.290;2022-10-04T13:53:01;101233.50;;;24.61;40.89
25232;BME280;13176;51.140;6.290;2022-10-04T14:02:14;101232.13;;;24.82;41.09
25232;BME280;13176;51.140;6.290;2022-10-04T14:05:24;101227.16;;;25.04;42.12
25232;BME280;13176;51.140;6.290;2022-10-04T14:11:03;101234.47;;;24.60;40.89
25232;BME280;13176;51.140;6.290;2022-10-04T14:19:35;101228.72;;;24.80;40.51
25232;BME280;13176;51.140;6.290;2022-10-04T14:24:56;101225.13;;;24.53;40.77
25232;BME280;13176;51.140;6.290;2022-10-04T14:33:52;101221.09;;;24.32;40.48
25232;BME280;13176;51.140;6.290;2022-10-04T14:37:02;101223.09;;;24.15;40.11
25232;BME280;13176;51.140;6.290;2022-10-04T14:45:36;101214.75;;;24.49;40.20
25232;BME280;13176;51.140;6.290;2022-10-04T14:51:13;101184.88;;;24.28;40.48
25232;BME280;13176;51.140;6.290;2022-10-04T14:53:57;101201.66;;;24.30;40.85
25232;BME280;13176;51.140;6.290;2022-10-04T14:56:40;101200.69;;;24.18;41.04
25232;BME280;13176;51.140;6.290;2022-10-04T15:05:03;101179.91;;;24.36;41.07
25232;BME280;13176;51.140;6.290;2022-10-04T15:07:48;101162.94;;;24.24;42.51
25232;BME280;13176;51.140;6.290;2022-10-04T15:10:27;101187.34;;;24.31;41.25
25232;BME280;13176;51.140;6.290;2022-10-04T15:13:08;101179.34;;;24.18;41.42
25232;BME280;13176;51.140;6.290;2022-10-04T15:21:09;101213.50;;;23.97;42.46
25232;BME280;13176;51.140;6.290;2022-10-04T15:23:50;101172.81;;;23.80;42.17
25232;BME280;13176;51.140;6.290;2022-10-04T15:31:29;101166.25;;;23.56;43.25
25232;BME280;13176;51.140;6.290;2022-10-04T15:37:00;101212.53;;;23.69;43.52
25232;BME280;13176;51.140;6.290;2022-10-04T15:42:26;101177.97;;;23.83;43.65
25232;BME280;13176;51.140;6.290;2022-10-04T15:45:24;101186.53;;;23.88;42.93
25232;BME280;13176;51.140;6.290;2022-10-04T15:50:25;101178.00;;;23.97;43.09
25232;BME280;13176;51.140;6.290;2022-10-04T15:59:30;101200.09;;;24.40;42.78
25232;BME280;13176;51.140;6.290;2022-10-04T16:04:58;101186.00;;;23.97;43.83
25232;BME280;13176;51.140;6.290;2022-10-04T16:15:43;101142.38;;;23.68;47.86
25232;BME280;13176;51.140;6.290;2022-10-04T16:23:30;101188.94;;;23.33;49.04
25232;BME280;13176;51.140;6.290;2022-10-04T16:26:08;101170.03;;;22.92;50.40
25232;BME280;13176;51.140;6.290;2022-10-04T16:31:48;101187.06;;;22.89;51.76
25232;BME280;13176;51.140;6.290;2022-10-04T16:34:23;101165.66;;;22.75;51.83
25232;BME280;13176;51.140;6.290;2022-10-04T16:36:59;101185.19;;;22.76;52.58
25232;BME280;13176;51.140;6.290;2022-10-04T16:53:42;101181.22;;;22.02;54.97
25232;BME280;13176;51.140;6.290;2022-10-04T16:56:22;101187.75;;;21.80;54.74
25232;BME280;13176;51.140;6.290;2022-10-04T17:04:21;101189.41;;;21.83;56.23
25232;BME280;13176;51.140;6.290;2022-10-04T17:09:48;101188.69;;;21.79;56.66
25232;BME280;13176;51.140;6.290;2022-10-04T17:17:50;101204.56;;;21.64;56.86
25232;BME280;13176;51.140;6.290;2022-10-04T17:20:37;101159.06;;;21.36;56.30
25232;BME280;13176;51.140;6.290;2022-10-04T17:31:34;101225.94;;;20.90;59.04
25232;BME280;13176;51.140;6.290;2022-10-04T17:36:57;101218.75;;;20.92;58.38
25232;BME280;13176;51.140;6.290;2022-10-04T17:48:09;101236.13;;;20.99;58.21
25232;BME280;13176;51.140;6.290;2022-10-04T17:53:51;101157.97;;;20.32;58.59
25232;BME280;13176;51.140;6.290;2022-10-04T17:56:43;101256.91;;;20.71;58.77
25232;BME280;13176;51.140;6.290;2022-10-04T17:59:23;101229.63;;;20.49;58.78
25232;BME280;13176;51.140;6.290;2022-10-04T18:02:08;101226.03;;;20.50;58.42
25232;BME280;13176;51.140;6.290;2022-10-04T18:04:45;101248.56;;;20.60;59.01
25232;BME280;13176;51.140;6.290;2022-10-04T18:07:18;101186.16;;;20.15;58.54
25232;BME280;13176;51.140;6.290;2022-10-04T18:12:55;101237.94;;;20.42;58.70
25232;BME280;13176;51.140;6.290;2022-10-04T18:15:28;101211.25;;;20.26;58.32
25232;BME280;13176;51.140;6.290;2022-10-04T18:20:34;101247.97;;;20.35;58.63
25232;BME280;13176;51.140;6.290;2022-10-04T18:23:25;101240.94;;;20.34;58.86
25232;BME280;13176;51.140;6.290;2022-10-04T18:25:57;101253.66;;;20.26;59.14
25232;BME280;13176;51.140;6.290;2022-10-04T18:28:24;101233.91;;;19.93;59.72
25232;BME280;13176;51.140;6.290;2022-10-04T18:30:55;101229.69;;;19.89;58.98
25232;BME280;13176;51.140;6.290;2022-10-04T18:36:17;101261.75;;;20.03;59.32
25232;BME280;13176;51.140;6.290;2022-10-04T18:38:47;101226.06;;;19.70;59.29
25232;BME280;13176;51.140;6.290;2022-10-04T18:41:23;101208.91;;;19.59;59.94
25232;BME280;13176;51.140;6.290;2022-10-04T18:44:15;101221.81;;;19.66;59.72
25232;BME280;13176;51.140;6.290;2022-10-04T18:46:44;101269.28;;;19.92;59.34
25232;BME280;13176;51.140;6.290;2022-10-04T18:49:20;101229.00;;;19.64;59.01
25232;BME280;13176;51.140;6.290;2022-10-04T18:52:02;101259.06;;;19.83;58.96
25232;BME280;13176;51.140;6.290;2022-10-04T18:55:17;101255.09;;;19.73;59.48
25232;BME280;13176;51.140;6.290;2022-10-04T18:57:41;101262.34;;;19.68;59.62
25232;BME280;13176;51.140;6.290;2022-10-04T19:00:37;101193.03;;;19.18;59.85
25232;BME280;13176;51.140;6.290;2022-10-04T19:06:29;101221.44;;;19.55;60.57
25232;BME280;13176;51.140;6.290;2022-10-04T19:11:43;101224.09;;;19.55;60.35
25232;BME280;13176;51.140;6.290;2022-10-04T19:17:00;101226.75;;;19.55;60.35
25232;BME280;13176;51.140;6.290;2022-10-04T19:22:44;101225.47;;;19.23;61.97
25232;BME280;13176;51.140;6.290;2022-10-04T19:25:32;101220.06;;;19.03;62.18
25232;BME280;13176;51.140;6.290;2022-10-04T19:28:12;101207.94;;;18.76;62.74
25232;BME280;13176;51.140;6.290;2022-10-04T19:33:39;101232.28;;;19.07;62.09
25232;BME280;13176;51.140;6.290;2022-10-04T19:36:26;101237.22;;;19.16;62.20
25232;BME280;13176;51.140;6.290;2022-10-04T19:39:07;101244.94;;;19.22;60.90
25232;BME280;13176;51.140;6.290;2022-10-04T19:42:02;101200.00;;;18.76;61.31
25232;BME280;13176;51.140;6.290;2022-10-04T19:50:13;101215.94;;;18.51;61.78
25232;BME280;13176;51.140;6.290;2022-10-04T19:55:23;101256.84;;;18.87;60.77
25232;BME280;13176;51.140;6.290;2022-10-04T19:58:04;101253.63;;;18.79;61.83
25232;BME280;13176;51.140;6.290;2022-10-04T20:00:31;101233.00;;;18.66;61.80
25232;BME280;13176;51.140;6.290;2022-10-04T20:03:00;101213.28;;;18.53;60.92
25232;BME280;13176;51.140;6.290;2022-10-04T20:05:27;101189.72;;;18.23;62.05
25232;BME280;13176;51.140;6.290;2022-10-04T20:07:57;101215.88;;;18.30;61.68
25232;BME280;13176;51.140;6.290;2022-10-04T20:10:34;101265.88;;;18.59;61.77
25232;BME280;13176;51.140;6.290;2022-10-04T20:13:17;101264.97;;;18.60;61.32
25232;BME280;13176;51.140;6.290;2022-10-04T20:15:51;101252.56;;;18.39;62.09
25232;BME280;13176;51.140;6.290;2022-10-04T20:26:09;101210.28;;;18.15;61.52
25232;BME280;13176;51.140;6.290;2022-10-04T20:28:38;101245.44;;;18.41;61.89
25232;BME280;13176;51.140;6.290;2022-10-04T20:31:50;101222.91;;;18.31;62.08
25232;BME280;13176;51.140;6.290;2022-10-04T20:34:21;101229.47;;;18.44;61.59
25232;BME280;13176;51.140;6.290;2022-10-04T20:36:49;101205.81;;;18.39;62.60
25232;BME280;13176;51.140;6.290;2022-10-04T20:42:35;101222.78;;;18.34;63.26
25232;BME280;13176;51.140;6.290;2022-10-04T20:50:13;101216.72;;;18.55;62.32
25232;BME280;13176;51.140;6.290;2022-10-04T20:52:46;101220.03;;;18.60;62.04
25232;BME280;13176;51.140;6.290;2022-10-04T20:55:18;101212.09;;;18.60;61.93
25232;BME280;13176;51.140;6.290;2022-10-04T20:57:45;101172.34;;;18.40;62.37
25232;BME280;13176;51.140;6.290;2022-10-04T21:00:20;101222.22;;;18.72;62.26
25232;BME280;13176;51.140;6.290;2022-10-04T21:02:47;101235.53;;;18.69;62.76
25232;BME280;13176;51.140;6.290;2022-10-04T21:05:22;101172.41;;;18.38;61.95
25232;BME280;13176;51.140;6.290;2022-10-04T21:10:38;101215.41;;;18.88;61.32
25232;BME280;13176;51.140;6.290;2022-10-04T21:13:48;101202.59;;;18.77;61.79
25232;BME280;13176;51.140;6.290;2022-10-04T21:16:32;101180.50;;;18.57;61.45
25232;BME280;13176;51.140;6.290;2022-10-04T21:24:52;101238.31;;;18.66;62.83
25232;BME280;13176;51.140;6.290;2022-10-04T21:29:52;101105.69;;;18.09;62.20
25232;BME280;13176;51.140;6.290;2022-10-04T21:32:19;101206.00;;;18.81;61.58
25232;BME280;13176;51.140;6.290;2022-10-04T21:34:46;101116.84;;;18.40;61.79